Time;durP1;ratioP1;P1;durP2;ratioP2;P2;SDS_P1;SDS_P2;PMS_P1;PMS_P2;Temp;Humidity;BMP_temperature;BMP_pressure;BME280_temperature;BME280_humidity;BME280_pressure;Samples;Min_cycle;Max_cycle;Signal;HPM_P1;HPM_P2
2024/02/01 00:00:01;;;;;;;1.35;1.00;;;10.90;1.00;;;;;;4980996;28;20050;-76
2024/02/01 00:02:28;;;;;;;1.77;1.00;;;10.90;1.00;;;;;;4982021;28;20042;-76
2024/02/01 00:04:55;;;;;;;1.77;1.10;;;10.90;21.80;;;;;;4981399;28;20125;-77
2024/02/01 00:07:22;;;;;;;1.60;1.10;;;10.90;31.00;;;;;;4995241;28;20046;-77
2024/02/01 00:09:49;;;;;;;2.33;1.30;;;10.90;77.60;;;;;;4978369;28;20136;-77
2024/02/01 00:12:15;;;;;;;1.70;1.38;;;10.90;63.60;;;;;;4998313;28;20100;-76
2024/02/01 00:14:43;;;;;;;1.65;1.00;;;10.90;99.90;;;;;;4962503;28;20065;-76
2024/02/01 00:17:11;;;;;;;2.63;1.20;;;10.90;99.90;;;;;;4990150;28;20108;-76
2024/02/01 00:19:37;;;;;;;1.77;1.13;;;10.90;99.90;;;;;;4998561;28;20062;-77
2024/02/01 00:22:04;;;;;;;2.17;1.17;;;10.90;99.90;;;;;;4962184;28;20209;-76
2024/02/01 00:24:38;;;;;;;0.98;0.70;;;10.90;99.90;;;;;;4994710;28;20452;-76
2024/02/01 00:27:05;;;;;;;1.80;1.02;;;10.90;99.90;;;;;;4979086;28;20053;-77
2024/02/01 00:29:32;;;;;;;1.42;0.73;;;10.90;99.90;;;;;;4965943;28;20532;-77
2024/02/01 00:31:59;;;;;;;1.38;0.70;;;10.90;99.90;;;;;;4977638;28;20050;-77
2024/02/01 00:34:29;;;;;;;1.48;0.80;;;10.90;99.90;;;;;;4965013;28;20135;-76
2024/02/01 00:36:56;;;;;;;1.58;0.80;;;10.90;99.90;;;;;;4963853;28;20463;-76
2024/02/01 00:39:23;;;;;;;1.83;0.70;;;10.90;99.90;;;;;;4964619;28;20057;-76
2024/02/01 00:41:49;;;;;;;1.10;0.82;;;11.00;99.90;;;;;;4978907;28;20053;-75
2024/02/01 00:44:17;;;;;;;1.58;0.70;;;10.90;97.60;;;;;;4982062;28;20100;-76
2024/02/01 00:46:44;;;;;;;2.40;1.20;;;10.90;99.90;;;;;;4968949;28;20085;-76
2024/02/01 00:49:12;;;;;;;1.25;0.70;;;11.00;36.00;;;;;;4971695;28;20072;-77
2024/02/01 00:51:39;;;;;;;0.95;0.80;;;11.00;99.90;;;;;;4965291;28;20053;-76
2024/02/01 00:54:07;;;;;;;1.25;0.82;;;11.00;1.80;;;;;;4962013;28;20058;-77
2024/02/01 00:56:35;;;;;;;1.15;0.65;;;11.00;1.00;;;;;;4985140;28;20503;-76
2024/02/01 00:59:02;;;;;;;0.80;0.52;;;11.00;1.00;;;;;;4969510;28;20104;-76
2024/02/01 01:01:29;;;;;;;0.80;0.73;;;11.00;1.00;;;;;;4968250;28;20061;-76
2024/02/01 01:03:56;;;;;;;1.58;1.00;;;11.00;99.90;;;;;;4966127;28;20046;-76
2024/02/01 01:06:24;;;;;;;1.73;0.75;;;11.00;99.90;;;;;;4952870;28;20429;-77
2024/02/01 01:08:51;;;;;;;1.17;0.88;;;11.00;99.90;;;;;;4965642;28;20614;-77
2024/02/01 01:11:18;;;;;;;1.45;0.73;;;11.10;99.90;;;;;;4968330;28;20050;-76
2024/02/01 01:13:44;;;;;;;1.38;0.73;;;11.10;99.90;;;;;;4961774;28;20064;-76
2024/02/01 01:16:11;;;;;;;0.75;0.70;;;11.10;99.90;;;;;;4968188;28;20125;-76
2024/02/01 01:18:38;;;;;;;1.77;0.60;;;11.10;99.90;;;;;;4963501;28;20065;-76
2024/02/01 01:21:05;;;;;;;0.98;0.60;;;11.10;99.90;;;;;;4972427;28;20069;-76
2024/02/01 01:23:33;;;;;;;0.85;0.60;;;11.10;99.90;;;;;;4975476;28;20511;-76
2024/02/01 01:26:00;;;;;;;0.63;0.40;;;11.10;93.50;;;;;;4987130;28;20506;-76
2024/02/01 01:28:26;;;;;;;0.55;0.40;;;11.10;75.60;;;;;;4986557;28;20384;-77
2024/02/01 01:30:54;;;;;;;0.52;0.40;;;11.10;67.10;;;;;;4969132;28;20077;-76
2024/02/01 01:33:21;;;;;;;0.70;0.60;;;11.10;99.90;;;;;;4969385;28;20144;-76
2024/02/01 01:35:49;;;;;;;1.00;0.60;;;11.10;99.90;;;;;;4972270;28;20077;-76
2024/02/01 01:38:16;;;;;;;0.95;0.50;;;11.10;99.90;;;;;;4984785;28;20055;-76
2024/02/01 01:40:43;;;;;;;1.10;0.60;;;11.10;1.00;;;;;;4993223;28;20621;-76
2024/02/01 01:43:10;;;;;;;1.02;0.63;;;11.10;1.00;;;;;;4989248;28;20437;-76
2024/02/01 01:45:37;;;;;;;0.57;0.57;;;11.00;1.00;;;;;;4971036;28;20148;-76
2024/02/01 01:48:04;;;;;;;0.40;0.40;;;11.00;1.00;;;;;;4975261;28;20050;-76
2024/02/01 01:50:32;;;;;;;0.68;0.40;;;11.00;1.00;;;;;;4987956;28;20085;-76
2024/02/01 01:52:59;;;;;;;0.60;0.40;;;11.00;1.00;;;;;;4952973;28;20077;-77
2024/02/01 01:55:26;;;;;;;0.95;0.60;;;11.00;1.00;;;;;;4952710;28;20397;-76
2024/02/01 01:57:54;;;;;;;0.85;0.50;;;11.00;1.00;;;;;;4967308;28;20065;-76
2024/02/01 02:00:21;;;;;;;1.00;0.50;;;11.00;1.00;;;;;;4979178;28;20133;-76
2024/02/01 02:02:48;;;;;;;0.65;0.30;;;11.00;1.00;;;;;;4975414;28;20145;-76
2024/02/01 02:05:15;;;;;;;0.45;0.38;;;11.00;1.00;;;;;;4955689;28;20115;-77
2024/02/01 02:07:42;;;;;;;1.33;0.50;;;11.00;1.00;;;;;;4950334;28;20049;-76
2024/02/01 02:10:14;;;;;;;1.23;0.60;;;11.00;99.90;;;;;;4966032;28;20064;-77
2024/02/01 02:12:43;;;;;;;1.23;0.60;;;11.00;82.80;;;;;;4985734;28;20112;-76
2024/02/01 02:15:10;;;;;;;1.85;0.77;;;10.90;99.90;;;;;;4987319;28;20057;-77
2024/02/01 02:17:38;;;;;;;0.90;0.63;;;10.90;99.90;;;;;;4970238;28;20052;-76
2024/02/01 02:20:18;;;;;;;0.70;0.60;;;10.80;99.90;;;;;;4987254;28;20072;-77
2024/02/01 02:22:47;;;;;;;0.57;0.50;;;10.80;99.90;;;;;;4998343;28;20053;-76
2024/02/01 02:25:14;;;;;;;0.88;0.40;;;10.80;99.90;;;;;;4968057;28;20054;-77
2024/02/01 02:27:42;;;;;;;1.25;0.65;;;10.70;47.60;;;;;;4965073;28;20555;-77
2024/02/01 02:30:13;;;;;;;1.33;0.93;;;10.60;1.00;;;;;;4970212;28;20132;-76
2024/02/01 02:32:42;;;;;;;1.88;1.00;;;10.50;99.90;;;;;;4980029;28;20052;-76
2024/02/01 02:35:13;;;;;;;1.50;0.85;;;10.40;99.90;;;;;;4974688;28;20053;-76
2024/02/01 02:37:47;;;;;;;1.60;1.02;;;10.30;99.90;;;;;;4978149;28;20133;-76
2024/02/01 02:40:18;;;;;;;3.10;1.00;;;10.10;99.90;;;;;;4970184;28;20050;-77
2024/02/01 02:42:45;;;;;;;1.65;0.88;;;9.90;99.90;;;;;;4956605;28;20064;-76
2024/02/01 02:45:12;;;;;;;4.82;1.77;;;9.80;99.90;;;;;;4970559;28;20046;-76
2024/02/01 02:47:40;;;;;;;4.97;1.20;;;9.80;99.90;;;;;;4947541;28;20074;-76
2024/02/01 02:50:08;;;;;;;3.60;1.48;;;9.60;99.90;;;;;;4987003;28;20049;-76
2024/02/01 02:52:36;;;;;;;3.75;1.20;;;9.60;99.90;;;;;;4967796;28;20057;-76
2024/02/01 02:55:09;;;;;;;1.45;0.75;;;9.50;99.90;;;;;;4985198;28;20893;-76
2024/02/01 02:57:36;;;;;;;2.63;1.20;;;9.50;99.90;;;;;;4988351;28;20050;-76
2024/02/01 03:00:05;;;;;;;3.33;1.05;;;9.40;99.90;;;;;;4972426;28;20050;-76
2024/02/01 03:02:33;;;;;;;1.15;0.68;;;9.40;99.90;;;;;;4971962;28;20107;-76
2024/02/01 03:05:01;;;;;;;2.67;0.93;;;9.30;99.30;;;;;;4970240;28;20396;-77
2024/02/01 03:07:29;;;;;;;2.78;1.05;;;9.30;99.90;;;;;;4995963;28;20088;-76
2024/02/01 03:09:56;;;;;;;2.20;0.77;;;9.30;99.70;;;;;;5001613;28;20082;-76
2024/02/01 03:12:23;;;;;;;3.70;0.90;;;9.30;99.90;;;;;;5001449;28;20067;-76
2024/02/01 03:14:50;;;;;;;2.90;1.00;;;9.30;99.80;;;;;;4987910;28;20128;-76
2024/02/01 03:17:18;;;;;;;2.60;1.20;;;9.20;94.30;;;;;;4969982;28;20123;-76
2024/02/01 03:19:50;;;;;;;4.35;1.40;;;9.20;91.60;;;;;;5004750;28;20045;-76
2024/02/01 03:22:19;;;;;;;4.00;1.52;;;9.20;88.50;;;;;;5001609;28;20037;-76
2024/02/01 03:24:46;;;;;;;1.77;0.98;;;9.10;84.30;;;;;;4973238;28;20050;-76
2024/02/01 03:27:14;;;;;;;5.03;1.13;;;9.00;80.60;;;;;;4987103;28;20073;-76
2024/02/01 03:29:43;;;;;;;3.85;1.55;;;9.00;34.60;;;;;;4994738;28;20049;-76
2024/02/01 03:32:11;;;;;;;5.03;1.60;;;8.90;12.20;;;;;;4971733;28;20118;-76
2024/02/01 03:34:38;;;;;;;7.22;1.88;;;8.80;1.00;;;;;;4979499;28;20073;-76
2024/02/01 03:37:05;;;;;;;6.22;2.35;;;8.70;1.00;;;;;;4969963;28;20113;-76
2024/02/01 03:39:32;;;;;;;4.50;1.48;;;8.70;1.00;;;;;;4989389;28;20054;-77
2024/02/01 03:42:00;;;;;;;4.70;1.42;;;8.70;1.00;;;;;;4974990;28;20668;-76
2024/02/01 03:44:28;;;;;;;8.13;2.42;;;8.70;1.00;;;;;;4985903;28;20137;-77
2024/02/01 03:46:57;;;;;;;8.80;2.80;;;8.60;1.00;;;;;;4996670;28;20046;-77
2024/02/01 03:49:24;;;;;;;6.05;1.75;;;8.50;1.00;;;;;;4986037;28;20046;-76
2024/02/01 03:51:51;;;;;;;7.88;2.33;;;8.40;1.00;;;;;;4984290;28;20443;-77
2024/02/01 03:54:18;;;;;;;5.13;1.55;;;8.30;1.00;;;;;;4987869;28;20569;-76
2024/02/01 03:56:46;;;;;;;9.77;2.70;;;8.20;1.00;;;;;;4984695;28;20038;-77
2024/02/01 03:59:14;;;;;;;6.88;1.83;;;8.20;1.00;;;;;;4967025;28;20447;-77
2024/02/01 04:01:41;;;;;;;4.53;1.50;;;8.20;1.00;;;;;;4974626;28;20054;-77
2024/02/01 04:04:17;;;;;;;4.78;1.67;;;8.20;1.00;;;;;;5001553;28;20045;-77
2024/02/01 04:06:46;;;;;;;4.15;1.73;;;8.20;1.00;;;;;;4970177;28;20385;-77
2024/02/01 04:09:14;;;;;;;3.95;1.15;;;8.20;1.00;;;;;;4995754;28;20472;-75
2024/02/01 04:11:41;;;;;;;3.10;1.17;;;8.20;1.00;;;;;;4970525;28;20050;-75
2024/02/01 04:14:09;;;;;;;3.42;1.23;;;8.20;1.00;;;;;;5003986;28;20061;-76
2024/02/01 04:16:35;;;;;;;2.40;1.05;;;8.20;1.00;;;;;;4970369;28;20054;-75
2024/02/01 04:19:03;;;;;;;4.15;1.77;;;8.20;1.00;;;;;;4970252;28;20404;-77
2024/02/01 04:21:33;;;;;;;2.50;1.30;;;8.10;1.00;;;;;;4975123;28;20048;-77
2024/02/01 04:24:00;;;;;;;4.90;1.58;;;8.10;1.00;;;;;;4964914;28;20096;-77
2024/02/01 04:26:28;;;;;;;3.47;1.48;;;8.00;1.00;;;;;;4974535;28;20053;-77
2024/02/01 04:28:55;;;;;;;6.97;1.70;;;8.00;1.00;;;;;;4987683;28;20085;-77
2024/02/01 04:31:22;;;;;;;8.48;2.00;;;7.90;1.00;;;;;;4995794;28;20050;-77
2024/02/01 04:33:54;;;;;;;3.63;1.13;;;7.90;1.00;;;;;;4993771;28;20053;-77
2024/02/01 04:36:21;;;;;;;3.95;1.30;;;7.90;1.00;;;;;;5005550;28;20053;-77
2024/02/01 04:38:49;;;;;;;3.50;1.23;;;7.90;1.00;;;;;;5001716;28;20133;-77
2024/02/01 04:41:16;;;;;;;3.28;1.10;;;7.90;1.00;;;;;;4990644;28;20476;-77
2024/02/01 04:43:43;;;;;;;2.33;0.98;;;7.90;1.00;;;;;;4986918;28;20039;-77
2024/02/01 04:46:10;;;;;;;2.05;0.93;;;7.90;1.00;;;;;;4959676;28;20670;-77
2024/02/01 04:48:37;;;;;;;3.42;1.55;;;7.90;1.00;;;;;;4986780;28;20046;-77
2024/02/01 04:51:07;;;;;;;4.10;1.17;;;8.00;1.00;;;;;;5003765;28;20050;-77
2024/02/01 04:53:34;;;;;;;4.20;0.90;;;7.90;1.00;;;;;;5004453;28;20487;-77
2024/02/01 04:56:01;;;;;;;2.60;1.20;;;7.90;1.00;;;;;;5005222;28;20547;-77
2024/02/01 04:58:28;;;;;;;4.18;1.15;;;8.00;1.00;;;;;;4986766;28;20136;-77
2024/02/01 05:00:55;;;;;;;2.22;1.00;;;8.00;1.00;;;;;;5005016;28;21034;-77
2024/02/01 05:03:23;;;;;;;2.40;1.00;;;8.00;1.00;;;;;;5006590;28;20046;-76
2024/02/01 05:06:00;;;;;;;5.47;1.27;;;8.00;1.00;;;;;;5006754;28;20420;-77
2024/02/01 05:08:27;;;;;;;4.72;1.02;;;8.00;1.00;;;;;;4995790;28;20408;-77
2024/02/01 05:10:56;;;;;;;2.67;1.38;;;7.90;1.00;;;;;;4986882;28;20046;-77
2024/02/01 05:13:24;;;;;;;4.38;1.75;;;7.90;1.00;;;;;;4970456;28;20054;-76
2024/02/01 05:15:57;;;;;;;5.45;1.92;;;7.90;1.00;;;;;;4974923;28;20041;-77
2024/02/01 05:18:24;;;;;;;7.07;2.08;;;7.80;1.00;;;;;;5001715;28;20099;-77
2024/02/01 05:20:51;;;;;;;4.28;1.27;;;7.70;1.00;;;;;;5005969;28;20377;-76
2024/02/01 05:23:18;;;;;;;3.83;1.15;;;7.60;1.00;;;;;;4992640;28;20072;-77
2024/02/01 05:25:44;;;;;;;2.78;1.13;;;7.60;1.00;;;;;;4992846;28;20139;-77
2024/02/01 05:28:11;;;;;;;1.73;0.68;;;7.50;1.00;;;;;;5005143;28;20455;-78
2024/02/01 05:30:44;;;;;;;3.28;1.27;;;7.50;1.00;;;;;;4970918;28;20125;-77
2024/02/01 05:33:12;;;;;;;4.90;1.27;;;7.30;1.00;;;;;;4980569;28;20424;-77
2024/02/01 05:35:39;;;;;;;3.88;1.00;;;7.30;1.00;;;;;;4972519;28;20050;-77
2024/02/01 05:38:06;;;;;;;2.65;1.10;;;7.20;1.00;;;;;;5004412;28;20057;-77
2024/02/01 05:40:36;;;;;;;5.00;1.25;;;7.10;1.00;;;;;;4992561;28;20128;-76
2024/02/01 05:43:03;;;;;;;4.20;1.50;;;7.10;1.00;;;;;;4991459;28;20105;-76
2024/02/01 05:45:31;;;;;;;3.47;1.30;;;7.00;1.00;;;;;;4990908;28;20053;-77
2024/02/01 05:47:59;;;;;;;2.83;1.45;;;7.00;1.00;;;;;;4985918;28;20126;-76
2024/02/01 05:50:26;;;;;;;5.28;1.50;;;7.00;1.00;;;;;;5003500;28;20129;-76
2024/02/01 05:52:54;;;;;;;3.80;1.30;;;7.00;1.00;;;;;;4985451;28;20054;-77
2024/02/01 05:55:21;;;;;;;2.03;0.93;;;6.90;1.00;;;;;;4992617;28;20050;-76
2024/02/01 05:57:49;;;;;;;3.45;0.93;;;6.90;1.00;;;;;;4984093;28;20097;-77
2024/02/01 06:00:19;;;;;;;2.00;1.27;;;6.80;1.00;;;;;;4984332;28;20138;-76
2024/02/01 06:02:47;;;;;;;2.10;0.73;;;6.80;1.00;;;;;;4986965;28;20058;-77
2024/02/01 06:05:14;;;;;;;1.05;0.47;;;6.80;1.00;;;;;;4990960;28;20052;-77
2024/02/01 06:07:42;;;;;;;1.02;0.60;;;6.70;1.00;;;;;;4980316;28;20281;-77
2024/02/01 06:10:09;;;;;;;1.75;0.57;;;6.60;1.00;;;;;;4986029;28;20050;-77
2024/02/01 06:12:37;;;;;;;1.52;0.60;;;6.60;1.00;;;;;;4963385;28;20149;-76
2024/02/01 06:15:06;;;;;;;1.75;0.60;;;6.50;1.00;;;;;;5010861;28;20050;-76
2024/02/01 06:17:34;;;;;;;4.22;1.00;;;6.40;1.00;;;;;;5000229;28;20175;-76
2024/02/01 06:20:01;;;;;;;2.45;0.90;;;6.30;1.00;;;;;;5010151;28;20050;-76
2024/02/01 06:22:30;;;;;;;3.75;1.15;;;6.30;1.00;;;;;;4984108;28;20057;-76
2024/02/01 06:24:58;;;;;;;2.40;1.23;;;6.20;1.00;;;;;;4994632;28;20050;-76
2024/02/01 06:27:25;;;;;;;1.48;0.60;;;6.20;1.00;;;;;;4989022;28;20495;-76
2024/02/01 06:29:52;;;;;;;1.52;0.70;;;6.20;1.00;;;;;;4998005;28;20086;-76
2024/02/01 06:32:22;;;;;;;2.90;1.00;;;6.10;1.00;;;;;;5002431;28;20152;-77
2024/02/01 06:34:58;;;;;;;1.58;0.80;;;6.10;1.00;;;;;;4985356;28;20046;-76
2024/02/01 06:37:28;;;;;;;1.42;0.50;;;6.10;1.00;;;;;;4967209;28;20077;-76
2024/02/01 06:42:55;;;;;;;1.65;0.70;;;6.00;1.00;;;;;;4997226;28;20128;-77
2024/02/01 06:45:29;;;;;;;1.83;0.70;;;5.90;1.00;;;;;;4981389;28;20112;-76
2024/02/01 06:48:04;;;;;;;0.85;0.40;;;5.80;1.00;;;;;;4952224;28;20053;-76
2024/02/01 06:53:20;;;;;;;1.45;0.50;;;5.80;1.00;;;;;;4997198;28;20451;-76
2024/02/01 06:58:47;;;;;;;1.20;0.60;;;5.80;1.00;;;;;;4984526;28;20046;-77
2024/02/01 07:04:20;;;;;;;1.60;0.73;;;5.80;1.00;;;;;;4981052;28;20058;-77
2024/02/01 07:07:17;;;;;;;0.98;0.45;;;5.80;1.00;;;;;;4997758;28;20049;-76
2024/02/01 07:09:57;;;;;;;1.02;0.63;;;5.80;1.00;;;;;;4983897;28;20049;-76
2024/02/01 07:12:40;;;;;;;1.20;0.70;;;5.70;1.00;;;;;;4988116;28;20049;-77
2024/02/01 07:15:19;;;;;;;1.05;0.40;;;5.70;1.00;;;;;;4990075;28;20101;-74
2024/02/01 07:17:47;;;;;;;1.35;0.32;;;5.70;1.00;;;;;;4980929;28;20191;-74
2024/02/01 07:20:23;;;;;;;0.45;0.40;;;5.60;1.00;;;;;;4965188;28;20046;-74
2024/02/01 07:23:00;;;;;;;1.25;0.45;;;5.60;1.00;;;;;;4966387;28;20046;-74
2024/02/01 07:25:36;;;;;;;0.93;0.50;;;5.60;1.00;;;;;;4970275;28;20073;-74
2024/02/01 07:58:29;;;;;;;0.45;0.30;;;5.30;1.00;;;;;;4966243;28;20057;-74
2024/02/01 08:01:01;;;;;;;0.20;0.20;;;5.30;1.00;;;;;;4958063;28;20110;-75
2024/02/01 08:03:55;;;;;;;0.95;0.35;;;5.30;1.00;;;;;;4984529;28;20430;-74
2024/02/01 08:09:12;;;;;;;0.40;0.30;;;5.30;1.00;;;;;;4985360;28;20851;-74
2024/02/01 08:11:42;;;;;;;0.65;0.40;;;5.20;1.00;;;;;;4988835;28;20167;-74
2024/02/01 08:14:15;;;;;;;0.40;0.40;;;5.20;1.00;;;;;;4972884;28;20117;-74
2024/02/01 08:16:43;;;;;;;0.85;0.60;;;5.20;1.00;;;;;;4987467;28;20054;-74
2024/02/01 08:19:10;;;;;;;0.38;0.30;;;5.10;1.00;;;;;;4972575;28;20502;-74
2024/02/01 08:21:51;;;;;;;0.43;0.35;;;5.10;1.00;;;;;;4986864;28;20061;-75
2024/02/01 08:24:22;;;;;;;0.82;0.45;;;5.10;1.00;;;;;;4968793;28;20046;-74
2024/02/01 08:26:52;;;;;;;0.55;0.40;;;5.10;3.90;;;;;;5005001;28;20064;-75
2024/02/01 08:29:24;;;;;;;1.00;0.40;;;5.10;3.30;;;;;;5006018;28;20053;-74
2024/02/01 08:31:53;;;;;;;0.70;0.30;;;5.10;5.70;;;;;;4972911;28;20463;-75
2024/02/01 08:34:20;;;;;;;0.75;0.45;;;5.10;9.10;;;;;;4991131;28;20068;-74
2024/02/01 08:36:47;;;;;;;0.98;0.52;;;5.10;14.20;;;;;;5004550;28;20076;-74
2024/02/01 08:39:15;;;;;;;0.77;0.38;;;5.10;9.20;;;;;;4988717;28;20060;-74
2024/02/01 08:41:43;;;;;;;0.70;0.40;;;5.20;14.40;;;;;;4994065;28;20049;-74
2024/02/01 08:44:10;;;;;;;2.00;0.60;;;5.20;13.90;;;;;;5014735;28;20068;-74
2024/02/01 08:46:38;;;;;;;1.00;0.68;;;5.30;18.40;;;;;;4997017;28;20137;-74
2024/02/01 08:49:05;;;;;;;0.47;0.47;;;5.30;19.00;;;;;;4977436;28;20050;-74
2024/02/01 08:51:33;;;;;;;0.50;0.30;;;5.30;10.50;;;;;;5010084;28;20105;-75
2024/02/01 08:53:59;;;;;;;1.08;0.57;;;5.40;11.70;;;;;;5010200;28;20062;-75
2024/02/01 08:56:36;;;;;;;0.30;0.30;;;5.40;11.70;;;;;;5004980;28;20053;-75
2024/02/01 08:59:04;;;;;;;0.63;0.43;;;5.50;8.40;;;;;;4982303;28;20573;-75
2024/02/01 09:01:31;;;;;;;0.45;0.40;;;5.50;7.50;;;;;;4987855;28;20069;-78
2024/02/01 09:04:01;;;;;;;1.38;0.60;;;5.50;1.20;;;;;;5013129;28;20046;-76
2024/02/01 09:06:28;;;;;;;0.60;0.52;;;5.60;1.00;;;;;;5006391;28;20127;-76
2024/02/01 09:08:55;;;;;;;1.65;0.50;;;5.70;1.00;;;;;;5005411;28;20056;-75
2024/02/01 09:11:24;;;;;;;0.60;0.32;;;5.70;1.00;;;;;;4995289;28;20073;-76
2024/02/01 09:13:51;;;;;;;0.73;0.28;;;5.80;1.00;;;;;;4995196;28;20081;-76
2024/02/01 09:16:24;;;;;;;1.70;0.40;;;5.90;1.00;;;;;;4979472;28;20057;-77
2024/02/01 09:18:51;;;;;;;0.98;0.50;;;5.90;1.00;;;;;;4996098;28;20072;-76
2024/02/01 09:21:21;;;;;;;1.27;0.70;;;6.00;1.00;;;;;;4995399;28;20169;-76
2024/02/01 09:23:49;;;;;;;0.80;0.40;;;6.00;1.00;;;;;;4994953;28;20137;-76
2024/02/01 09:26:16;;;;;;;0.70;0.50;;;6.10;1.00;;;;;;4995391;28;20073;-76
2024/02/01 09:28:44;;;;;;;0.75;0.52;;;6.20;1.00;;;;;;4974081;28;20603;-78
2024/02/01 09:31:21;;;;;;;1.95;0.63;;;6.20;1.00;;;;;;4983173;28;20629;-75
2024/02/01 09:33:50;;;;;;;1.13;0.43;;;6.30;1.00;;;;;;4981473;28;20401;-76
2024/02/01 09:36:18;;;;;;;0.47;0.40;;;6.30;1.00;;;;;;4964739;28;20068;-76
2024/02/01 09:38:46;;;;;;;1.80;0.50;;;6.40;1.00;;;;;;4979907;28;20372;-75
2024/02/01 09:41:17;;;;;;;2.00;0.70;;;6.40;1.00;;;;;;4979354;28;20153;-75
2024/02/01 09:43:48;;;;;;;0.90;0.55;;;6.50;1.00;;;;;;5001177;28;20081;-75
2024/02/01 09:46:16;;;;;;;1.15;0.65;;;6.50;1.00;;;;;;4997975;28;20050;-74
2024/02/01 09:48:44;;;;;;;0.85;0.50;;;6.60;1.00;;;;;;4978795;28;20583;-75
2024/02/01 09:51:17;;;;;;;1.77;0.60;;;6.60;1.00;;;;;;4979359;28;20073;-75
2024/02/01 09:53:49;;;;;;;2.35;0.70;;;6.70;1.00;;;;;;4978034;28;20049;-80
2024/02/01 09:56:17;;;;;;;2.15;0.60;;;6.70;1.00;;;;;;4974275;28;20519;-80
2024/02/01 09:58:44;;;;;;;0.57;0.40;;;6.80;1.00;;;;;;4968007;28;20057;-80
2024/02/01 10:01:12;;;;;;;0.57;0.40;;;6.80;1.00;;;;;;4983335;28;20046;-80
2024/02/01 10:03:44;;;;;;;2.13;0.60;;;6.90;1.00;;;;;;4999552;28;20058;-80
2024/02/01 10:06:12;;;;;;;2.17;0.50;;;6.90;1.00;;;;;;4987322;28;20077;-80
2024/02/01 10:08:40;;;;;;;1.08;0.50;;;7.00;1.00;;;;;;4986323;28;20065;-80
2024/02/01 10:11:07;;;;;;;2.15;0.77;;;7.00;1.00;;;;;;5002677;28;20054;-81
2024/02/01 10:13:38;;;;;;;2.88;0.80;;;7.10;1.00;;;;;;5000120;28;20070;-80
2024/02/01 10:16:16;;;;;;;1.85;0.80;;;7.10;1.00;;;;;;4971012;28;20079;-80
2024/02/01 10:18:52;;;;;;;2.03;0.75;;;7.20;1.00;;;;;;4982169;28;20057;-81
2024/02/01 10:21:23;;;;;;;1.05;0.60;;;7.30;1.00;;;;;;4968459;28;20054;-74
2024/02/01 10:24:05;;;;;;;1.55;0.77;;;7.30;1.00;;;;;;4981567;28;20053;-75
2024/02/01 10:26:32;;;;;;;1.13;0.60;;;7.40;1.00;;;;;;4995317;28;20085;-74
2024/02/01 10:28:59;;;;;;;1.30;0.70;;;7.40;1.00;;;;;;4976116;28;20072;-74
2024/02/01 10:31:27;;;;;;;2.15;0.73;;;7.60;1.00;;;;;;4983020;28;20065;-74
2024/02/01 10:33:54;;;;;;;2.25;0.98;;;7.60;1.00;;;;;;4981806;28;20127;-73
2024/02/01 10:36:25;;;;;;;2.05;0.50;;;7.60;1.00;;;;;;5002816;28;20046;-76
2024/02/01 10:38:58;;;;;;;2.30;0.85;;;7.70;1.00;;;;;;5001077;28;20212;-75
2024/02/01 10:41:28;;;;;;;3.20;0.93;;;7.80;1.00;;;;;;4987282;28;20045;-75
2024/02/01 10:43:56;;;;;;;1.63;0.82;;;7.90;1.00;;;;;;5002208;28;20073;-75
2024/02/01 10:46:29;;;;;;;1.83;1.00;;;7.90;1.00;;;;;;4984830;28;20056;-75
2024/02/01 10:49:03;;;;;;;2.28;1.00;;;7.90;1.00;;;;;;4998566;28;20507;-74
2024/02/01 10:51:34;;;;;;;2.05;0.98;;;8.00;1.00;;;;;;4984917;28;20081;-75
2024/02/01 10:54:02;;;;;;;3.70;0.80;;;8.00;1.00;;;;;;5000762;28;20050;-75
2024/02/01 10:56:29;;;;;;;4.72;1.40;;;8.10;1.00;;;;;;4983368;28;20395;-76
2024/02/01 10:58:58;;;;;;;2.20;0.90;;;8.10;1.00;;;;;;4983212;28;20062;-75
2024/02/01 11:01:28;;;;;;;2.60;0.95;;;8.20;1.00;;;;;;4985223;28;20058;-75
2024/02/01 11:03:55;;;;;;;2.20;0.90;;;8.20;1.00;;;;;;4986035;28;20131;-75
2024/02/01 11:06:23;;;;;;;2.83;1.00;;;8.20;1.00;;;;;;5002273;28;20061;-75
2024/02/01 11:08:51;;;;;;;3.05;1.35;;;8.30;1.00;;;;;;5000450;28;20077;-75
2024/02/01 11:11:39;;;;;;;2.30;1.45;;;8.30;1.00;;;;;;5002028;28;20054;-76
2024/02/01 11:14:12;;;;;;;2.90;1.20;;;8.40;1.00;;;;;;4972677;28;20114;-75
2024/02/01 11:16:39;;;;;;;;;;;8.40;1.00;;;;;;4996749;28;20160;-75
2024/02/01 11:19:13;;;;;;;4.30;1.10;;;8.40;1.00;;;;;;4995565;28;19928;-75
2024/02/01 11:21:50;;;;;;;4.78;1.58;;;8.50;1.00;;;;;;4994840;28;20421;-76
2024/02/01 11:24:34;;;;;;;4.00;1.30;;;8.50;1.00;;;;;;4992948;28;20054;-75
2024/02/01 11:27:24;;;;;;;2.90;1.10;;;8.60;1.00;;;;;;4993972;28;20556;-76
2024/02/01 11:29:55;;;;;;;4.25;1.30;;;8.60;1.00;;;;;;4993282;28;20157;-75
2024/02/01 11:32:32;;;;;;;1.85;0.93;;;8.60;1.00;;;;;;4983955;28;20116;-75
2024/02/01 11:34:59;;;;;;;1.17;0.75;;;8.70;1.00;;;;;;4963424;28;20050;-75
2024/02/01 11:37:27;;;;;;;1.52;0.80;;;8.80;1.00;;;;;;4987285;28;20139;-76
2024/02/01 11:39:55;;;;;;;2.05;0.80;;;8.80;1.00;;;;;;4948276;28;20084;-77
2024/02/01 11:42:24;;;;;;;1.60;0.70;;;8.90;1.00;;;;;;4963056;28;20453;-77
2024/02/01 11:44:59;;;;;;;1.63;0.70;;;8.90;1.00;;;;;;4951296;28;20081;-78
2024/02/01 11:47:29;;;;;;;1.15;0.70;;;9.00;1.00;;;;;;4981948;28;20057;-77
2024/02/01 11:49:56;;;;;;;2.05;0.80;;;9.00;1.00;;;;;;4982219;28;20582;-78
2024/02/01 11:52:43;;;;;;;2.33;1.20;;;9.10;1.00;;;;;;4963668;28;20065;-77
2024/02/01 11:55:11;;;;;;;3.72;1.58;;;9.10;1.00;;;;;;4953964;28;20464;-77
2024/02/01 11:57:49;;;;;;;3.50;1.27;;;9.10;1.00;;;;;;4969353;28;20066;-78
2024/02/01 12:00:20;;;;;;;3.85;1.63;;;9.20;1.00;;;;;;4982055;28;20054;-78
2024/02/01 12:03:08;;;;;;;3.03;1.20;;;9.40;1.00;;;;;;4986532;28;20045;-76
2024/02/01 12:05:36;;;;;;;4.65;1.70;;;9.50;1.00;;;;;;4963315;28;20480;-78
2024/02/01 12:08:03;;;;;;;3.22;1.10;;;9.70;1.00;;;;;;4963225;28;20085;-77
2024/02/01 12:10:31;;;;;;;5.00;1.67;;;9.80;1.00;;;;;;4995697;28;20419;-77
2024/02/01 12:12:59;;;;;;;4.28;1.75;;;9.80;1.00;;;;;;4962571;28;20381;-78
2024/02/01 12:15:28;;;;;;;3.53;1.58;;;10.00;1.00;;;;;;4960294;28;20046;-76
2024/02/01 12:17:58;;;;;;;4.40;1.83;;;10.00;1.00;;;;;;4985435;28;20050;-76
2024/02/01 12:20:28;;;;;;;3.63;1.88;;;10.10;1.00;;;;;;4971302;28;20113;-77
2024/02/01 12:22:59;;;;;;;4.68;1.58;;;10.20;1.00;;;;;;4990814;28;20137;-76
2024/02/01 12:25:30;;;;;;;3.78;1.75;;;10.40;1.00;;;;;;4979982;28;20042;-77
2024/02/01 12:27:58;;;;;;;3.67;1.23;;;10.40;1.00;;;;;;4962673;28;20064;-78
2024/02/01 12:30:27;;;;;;;2.20;1.08;;;10.50;1.00;;;;;;4976503;28;20472;-77
2024/02/01 12:32:54;;;;;;;2.47;1.00;;;10.60;1.00;;;;;;4986216;28;20056;-76
2024/02/01 12:35:21;;;;;;;2.30;1.20;;;10.80;1.00;;;;;;4991416;28;20046;-76
2024/02/01 12:37:48;;;;;;;2.63;0.95;;;10.90;1.00;;;;;;5003273;28;20134;-77
2024/02/01 12:40:16;;;;;;;3.78;1.58;;;10.90;1.00;;;;;;4999942;28;20143;-79
2024/02/01 12:42:48;;;;;;;2.30;0.93;;;11.00;1.00;;;;;;5003145;28;20058;-76
2024/02/01 12:45:19;;;;;;;3.72;1.45;;;11.00;1.00;;;;;;5000115;28;20112;-76
2024/02/01 12:47:51;;;;;;;2.20;1.35;;;11.20;1.00;;;;;;5018160;28;20613;-77
2024/02/01 12:50:21;;;;;;;2.50;1.10;;;11.20;1.00;;;;;;4998992;28;20046;-78
2024/02/01 12:52:48;;;;;;;2.20;1.27;;;11.30;1.00;;;;;;4985943;28;20116;-78
2024/02/01 12:55:20;;;;;;;2.65;1.40;;;11.50;1.00;;;;;;4995893;28;20237;-78
2024/02/01 12:57:47;;;;;;;3.28;1.50;;;11.80;1.00;;;;;;5005674;28;20061;-77
2024/02/01 13:00:14;;;;;;;3.53;1.70;;;12.00;1.00;;;;;;5003497;28;20057;-78
2024/02/01 13:02:42;;;;;;;2.72;1.30;;;12.10;1.00;;;;;;4982559;28;20157;-78
2024/02/01 13:05:12;;;;;;;3.28;1.08;;;12.20;1.00;;;;;;4982126;28;20065;-78
2024/02/01 13:07:39;;;;;;;3.90;1.50;;;12.30;1.00;;;;;;4979684;28;20381;-78
2024/02/01 13:10:14;;;;;;;2.45;1.15;;;12.40;1.00;;;;;;5008622;28;20495;-78
2024/02/01 13:15:38;;;;;;;2.75;1.15;;;12.50;7.90;;;;;;4988810;28;20062;-78
2024/02/01 13:18:11;;;;;;;3.40;1.40;;;12.60;5.60;;;;;;4983088;28;20781;-78
2024/02/01 13:20:40;;;;;;;3.85;1.55;;;12.70;1.00;;;;;;4986484;28;20129;-79
2024/02/01 13:23:10;;;;;;;2.60;1.45;;;12.90;11.40;;;;;;4982861;28;20093;-78
2024/02/01 13:25:41;;;;;;;1.60;1.10;;;13.10;14.10;;;;;;4968284;28;20142;-79
2024/02/01 13:28:08;;;;;;;2.67;1.13;;;13.10;16.90;;;;;;4984271;28;20140;-78
2024/02/01 13:30:39;;;;;;;2.40;0.85;;;13.00;1.00;;;;;;4999332;28;20458;-77
2024/02/01 13:33:06;;;;;;;1.88;0.70;;;13.10;1.00;;;;;;4963117;28;20070;-78
2024/02/01 13:35:36;;;;;;;2.85;1.25;;;13.00;1.00;;;;;;5000502;28;20056;-78
2024/02/01 13:38:09;;;;;;;3.20;1.05;;;12.80;1.00;;;;;;4969223;28;20062;-79
2024/02/01 13:40:38;;;;;;;1.55;0.90;;;12.80;1.00;;;;;;4955996;28;20069;-78
2024/02/01 13:43:06;;;;;;;2.58;1.25;;;12.90;1.00;;;;;;4954314;28;20539;-78
2024/02/01 13:45:33;;;;;;;6.05;2.00;;;13.00;1.00;;;;;;4952992;28;20127;-79
2024/02/01 13:48:00;;;;;;;3.63;1.73;;;13.00;5.10;;;;;;4967483;28;20062;-79
2024/02/01 13:50:27;;;;;;;3.58;1.50;;;12.90;14.80;;;;;;4954289;28;20048;-79
2024/02/01 13:52:56;;;;;;;2.70;1.40;;;12.90;44.20;;;;;;4986063;28;20064;-78
2024/02/01 13:55:24;;;;;;;5.10;1.58;;;13.20;5.70;;;;;;4969291;28;20282;-78
2024/02/01 13:57:52;;;;;;;3.50;1.67;;;13.30;26.10;;;;;;5001479;28;20566;-78
2024/02/01 14:00:20;;;;;;;2.90;1.50;;;13.40;59.00;;;;;;4986316;28;20763;-79